createdAt,value
2022-11-15T00:00:26.636Z,40.20
2022-11-15T00:01:26.719Z,39.30
2022-11-15T00:02:27.721Z,39.70
2022-11-15T00:03:26.582Z,40.40
2022-11-15T00:04:26.580Z,40.30
2022-11-15T00:05:27.338Z,39.90
2022-11-15T00:06:26.685Z,38.50
2022-11-15T00:07:53.346Z,41.70
2022-11-15T00:08:26.529Z,40.90
2022-11-15T00:09:26.516Z,42.70
2022-11-15T00:10:26.510Z,41.80
2022-11-15T00:11:26.521Z,40.30
2022-11-15T00:12:26.593Z,40.70
2022-11-15T00:13:26.539Z,43.40
2022-11-15T00:14:26.471Z,41.20
2022-11-15T00:15:26.461Z,40.10
2022-11-15T00:16:26.534Z,41.90
2022-11-15T00:17:26.458Z,42.40
2022-11-15T00:18:26.537Z,43.20
2022-11-15T00:19:26.469Z,41.50
2022-11-15T00:20:26.394Z,39.60
2022-11-15T00:21:26.411Z,41.30
2022-11-15T00:22:26.408Z,41.60
2022-11-15T00:23:26.353Z,42.70
2022-11-15T00:24:27.450Z,40.60
2022-11-15T00:25:26.385Z,43.40
2022-11-15T00:26:26.390Z,40.80
2022-11-15T00:27:26.348Z,42.40
2022-11-15T00:28:27.344Z,41.90
2022-11-15T00:29:26.327Z,41.40
2022-11-15T00:30:27.998Z,39.70
2022-11-15T00:31:26.419Z,42.20
2022-11-15T00:32:26.898Z,41.20
2022-11-15T00:33:26.260Z,39.60
2022-11-15T00:34:26.271Z,40.50
2022-11-15T00:35:26.314Z,54.30
2022-11-15T00:36:26.277Z,69.40
2022-11-15T00:37:26.228Z,73.10
2022-11-15T00:38:26.277Z,47.60
2022-11-15T00:39:26.235Z,47.50
2022-11-15T00:40:26.284Z,46.80
2022-11-15T00:41:26.239Z,46.90
2022-11-15T00:42:26.160Z,44.70
2022-11-15T00:43:28.430Z,45.90
2022-11-15T00:44:26.128Z,42.50
2022-11-15T00:45:26.121Z,46.70
2022-11-15T00:46:26.196Z,80.90
2022-11-15T00:47:26.129Z,89.10
2022-11-15T00:48:26.210Z,61.50
2022-11-15T00:49:26.064Z,52.30
2022-11-15T00:50:26.049Z,49.50
2022-11-15T00:51:27.824Z,43.90
2022-11-15T00:52:26.125Z,41.70
2022-11-15T00:53:26.060Z,40.30
2022-11-15T00:54:26.144Z,41.50
2022-11-15T00:55:26.036Z,40.50
2022-11-15T00:56:25.993Z,39.90
2022-11-15T00:57:26.011Z,40.50
2022-11-15T00:58:25.960Z,40.00
2022-11-15T00:59:26.105Z,42.90
2022-11-15T01:00:25.956Z,42.20
2022-11-15T01:01:26.236Z,41.80
2022-11-15T01:02:26.031Z,47.50
2022-11-15T01:03:25.926Z,46.40
2022-11-15T01:04:25.936Z,44.00
2022-11-15T01:05:25.904Z,44.40
2022-11-15T01:06:25.905Z,63.50
2022-11-15T01:07:26.079Z,47.10
2022-11-15T01:08:25.843Z,43.90
2022-11-15T01:09:25.880Z,43.00
2022-11-15T01:10:25.962Z,43.10
2022-11-15T01:11:25.908Z,45.70
2022-11-15T01:12:25.811Z,43.80
2022-11-15T01:13:25.836Z,44.60
2022-11-15T01:14:25.909Z,41.70
2022-11-15T01:15:25.780Z,42.00
2022-11-15T01:16:25.836Z,42.20
2022-11-15T01:17:25.859Z,40.90
2022-11-15T01:18:25.836Z,41.20
2022-11-15T01:19:25.732Z,43.10
2022-11-15T01:20:25.712Z,41.30
2022-11-15T01:21:27.304Z,44.60
2022-11-15T01:22:25.733Z,43.70
2022-11-15T01:23:25.804Z,43.10
2022-11-15T01:24:25.764Z,43.00
2022-11-15T01:25:25.659Z,45.60
2022-11-15T01:26:25.645Z,47.70
2022-11-15T01:27:25.639Z,63.70
2022-11-15T01:28:25.670Z,49.70
2022-11-15T01:29:25.620Z,66.30
2022-11-15T01:30:25.640Z,58.70
2022-11-15T01:31:25.649Z,63.30
2022-11-15T01:32:25.705Z,73.90
2022-11-15T01:33:25.577Z,62.10
2022-11-15T01:34:25.570Z,64.00
2022-11-15T01:35:25.556Z,56.90
2022-11-15T01:36:25.591Z,81.40
2022-11-15T01:37:25.569Z,79.90
2022-11-15T01:38:25.592Z,54.50
2022-11-15T01:39:25.591Z,56.60
2022-11-15T01:40:25.505Z,59.10
2022-11-15T01:41:25.531Z,63.80
2022-11-15T01:42:25.478Z,59.80
2022-11-15T01:43:25.611Z,58.80
2022-11-15T01:44:25.534Z,60.60
2022-11-15T01:45:25.434Z,59.60
2022-11-15T01:46:25.503Z,57.50
2022-11-15T01:47:25.417Z,61.70
2022-11-15T01:48:25.451Z,68.20
2022-11-15T01:49:26.378Z,58.00
2022-11-15T01:50:25.508Z,68.50
2022-11-15T01:51:25.447Z,59.00
2022-11-15T01:52:25.384Z,61.80
2022-11-15T01:53:25.381Z,60.20
2022-11-15T01:54:25.367Z,58.30
2022-11-15T01:55:25.377Z,55.00
2022-11-15T01:56:25.384Z,61.60
2022-11-15T01:57:25.449Z,63.60
2022-11-15T01:58:25.293Z,69.20
2022-11-15T01:59:25.279Z,65.00
2022-11-15T02:00:25.331Z,63.80
2022-11-15T02:01:25.929Z,58.90
2022-11-15T02:02:25.425Z,65.20
2022-11-15T02:03:25.256Z,87.90
2022-11-15T02:04:25.236Z,69.40
2022-11-15T02:05:25.211Z,64.80
2022-11-15T02:06:25.261Z,61.00
2022-11-15T02:07:25.337Z,58.70
2022-11-15T02:08:25.323Z,57.60
2022-11-15T02:09:25.280Z,54.80
2022-11-15T02:10:25.149Z,58.00
2022-11-15T02:11:25.150Z,56.20
2022-11-15T02:12:25.129Z,57.80
2022-11-15T02:13:25.183Z,60.80
2022-11-15T02:14:25.283Z,57.10
2022-11-15T02:15:25.799Z,58.00
2022-11-15T02:16:25.091Z,57.10
2022-11-15T02:17:25.076Z,72.10
2022-11-15T02:18:25.125Z,61.50
2022-11-15T02:19:25.142Z,61.70
2022-11-15T02:20:25.156Z,65.90
2022-11-15T02:21:25.037Z,66.00
2022-11-15T02:22:25.909Z,66.30
2022-11-15T02:23:25.003Z,63.60
2022-11-15T02:24:25.045Z,68.50
2022-11-15T02:25:25.081Z,65.80
2022-11-15T02:26:25.036Z,67.30
2022-11-15T02:27:25.058Z,70.10
2022-11-15T02:28:24.950Z,64.40
2022-11-15T02:29:24.941Z,64.90
2022-11-15T02:30:25.002Z,68.10
2022-11-15T02:31:24.935Z,72.10
2022-11-15T02:32:24.900Z,73.00
2022-11-15T02:33:24.885Z,74.50
2022-11-15T02:34:28.882Z,76.40
2022-11-15T02:35:24.947Z,79.60
2022-11-15T02:36:26.495Z,71.00
2022-11-15T02:37:24.874Z,73.00
2022-11-15T02:38:24.836Z,67.30
2022-11-15T02:39:25.842Z,69.40
2022-11-15T02:40:24.892Z,65.40
2022-11-15T02:41:24.910Z,70.00
2022-11-15T02:42:24.878Z,70.10
2022-11-15T02:43:24.785Z,74.20
2022-11-15T02:44:24.765Z,70.50
2022-11-15T02:45:24.757Z,68.10
2022-11-15T02:46:24.777Z,67.30
2022-11-15T02:47:24.813Z,72.60
2022-11-15T02:48:24.786Z,72.50
2022-11-15T02:49:24.839Z,64.30
2022-11-15T02:50:24.699Z,65.90
2022-11-15T02:51:24.720Z,67.60
2022-11-15T02:52:24.728Z,70.30
2022-11-15T02:53:24.771Z,77.20
2022-11-15T02:54:24.766Z,73.60
2022-11-15T02:55:24.647Z,75.30
2022-11-15T02:56:24.635Z,86.00
2022-11-15T02:57:24.662Z,83.10
2022-11-15T02:58:24.615Z,72.90
2022-11-15T02:59:24.675Z,70.40
2022-11-15T03:00:24.615Z,66.70
2022-11-15T03:01:24.692Z,70.90
2022-11-15T03:02:24.629Z,71.20
2022-11-15T03:03:24.559Z,72.00
2022-11-15T03:04:24.599Z,71.80
2022-11-15T03:05:24.580Z,69.00
2022-11-15T03:06:24.516Z,73.50
2022-11-15T03:07:24.601Z,70.40
2022-11-15T03:08:24.545Z,67.00
2022-11-15T03:09:24.489Z,71.20
2022-11-15T03:10:24.492Z,73.00
2022-11-15T03:11:24.556Z,69.30
2022-11-15T03:12:24.490Z,68.50
2022-11-15T03:13:24.534Z,72.40
2022-11-15T03:14:24.429Z,70.70
2022-11-15T03:15:24.439Z,69.10
2022-11-15T03:16:24.475Z,68.50
2022-11-15T03:17:24.674Z,68.60
2022-11-15T03:18:24.497Z,68.80
2022-11-15T03:19:24.387Z,72.50
2022-11-15T03:20:24.400Z,70.70
2022-11-15T03:21:24.381Z,69.70
2022-11-15T03:22:24.338Z,68.00
2022-11-15T03:23:24.465Z,70.00
2022-11-15T03:24:26.154Z,70.00
2022-11-15T03:25:24.386Z,66.30
2022-11-15T03:26:24.395Z,68.70
2022-11-15T03:27:24.321Z,70.60
2022-11-15T03:28:25.034Z,70.60
2022-11-15T03:29:24.378Z,69.70
2022-11-15T03:30:24.347Z,69.80
2022-11-15T03:31:24.406Z,67.60
2022-11-15T03:32:24.273Z,67.60
2022-11-15T03:33:24.217Z,68.50
2022-11-15T03:34:24.538Z,70.20
2022-11-15T03:35:24.299Z,65.70
2022-11-15T03:36:24.258Z,66.70
2022-11-15T03:37:24.242Z,66.50
2022-11-15T03:38:24.235Z,67.50
2022-11-15T03:39:24.143Z,63.30
2022-11-15T03:40:24.131Z,64.80
2022-11-15T03:41:24.177Z,64.90
2022-11-15T03:42:24.240Z,69.80
2022-11-15T03:43:24.130Z,63.10
2022-11-15T03:44:24.175Z,66.70
2022-11-15T03:45:24.090Z,64.10
2022-11-15T03:46:24.778Z,63.00
2022-11-15T03:47:24.110Z,63.70
2022-11-15T03:48:24.265Z,67.00
2022-11-15T03:49:24.496Z,66.60
2022-11-15T03:50:24.024Z,64.70
2022-11-15T03:51:24.393Z,65.60
2022-11-15T03:52:23.999Z,66.80
2022-11-15T03:53:24.029Z,61.70
2022-11-15T03:54:24.080Z,65.40
2022-11-15T03:55:24.022Z,59.50
2022-11-15T03:56:23.981Z,60.20
2022-11-15T03:57:23.961Z,59.00
2022-11-15T03:58:23.970Z,57.20
2022-11-15T03:59:23.969Z,57.40
2022-11-15T04:00:23.972Z,56.70
2022-11-15T04:01:24.054Z,55.20
2022-11-15T04:02:23.895Z,51.30
2022-11-15T04:03:23.919Z,52.10
2022-11-15T04:04:23.868Z,49.70
2022-11-15T04:05:23.879Z,50.20
2022-11-15T04:06:23.883Z,53.30
2022-11-15T04:07:24.998Z,50.10
2022-11-15T04:08:24.651Z,48.70
2022-11-15T04:09:23.873Z,50.10
2022-11-15T04:10:23.810Z,48.70
2022-11-15T04:11:23.810Z,49.60
2022-11-15T04:12:23.849Z,48.00
2022-11-15T04:13:23.902Z,45.90
2022-11-15T04:14:23.781Z,45.50
2022-11-15T04:15:23.772Z,47.60
2022-11-15T04:16:23.734Z,46.50
2022-11-15T04:17:23.723Z,46.50
2022-11-15T04:18:23.785Z,43.30
2022-11-15T04:19:23.779Z,43.50
2022-11-15T04:20:23.716Z,46.20
2022-11-15T04:21:23.673Z,45.90
2022-11-15T04:22:23.709Z,46.10
2022-11-15T04:23:23.778Z,43.20
2022-11-15T04:24:23.778Z,41.50
2022-11-15T04:25:26.264Z,44.60
2022-11-15T04:26:23.623Z,46.10
2022-11-15T04:27:23.609Z,45.90
2022-11-15T04:28:23.591Z,42.60
2022-11-15T04:29:23.624Z,44.30
2022-11-15T04:30:23.609Z,44.40
2022-11-15T04:31:23.620Z,43.30
2022-11-15T04:32:23.638Z,44.60
2022-11-15T04:33:23.645Z,44.40
2022-11-15T04:34:23.608Z,45.60
2022-11-15T04:35:23.648Z,44.10
2022-11-15T04:36:23.522Z,43.50
2022-11-15T04:37:23.554Z,45.40
2022-11-15T04:38:23.493Z,47.80
2022-11-15T04:39:23.476Z,45.50
2022-11-15T04:45:59.214Z,46.50
2022-11-15T05:04:25.140Z,50.60
2022-11-15T05:05:26.093Z,49.80
2022-11-15T05:06:26.062Z,48.60
2022-11-15T05:07:28.082Z,52.80
2022-11-15T05:08:26.117Z,50.40
2022-11-15T05:09:26.157Z,51.20
2022-11-15T05:10:26.039Z,51.40
2022-11-15T05:11:26.007Z,51.90
2022-11-15T05:12:26.006Z,49.40
2022-11-15T05:13:25.987Z,50.50
2022-11-15T05:14:26.048Z,51.30
2022-11-15T05:15:27.829Z,52.30
2022-11-15T05:16:26.042Z,56.70
2022-11-15T05:17:26.554Z,54.80
2022-11-15T05:18:26.907Z,53.10
2022-11-15T05:19:25.916Z,54.60
2022-11-15T05:20:26.040Z,55.20
2022-11-15T05:21:26.004Z,56.40
2022-11-15T05:22:25.877Z,58.80
2022-11-15T05:23:25.869Z,57.40
2022-11-15T05:24:25.862Z,61.10
2022-11-15T05:25:25.843Z,60.70
2022-11-15T05:26:25.889Z,59.70
2022-11-15T05:27:27.484Z,63.10
2022-11-15T05:28:25.908Z,69.20
2022-11-15T05:29:25.808Z,63.90
2022-11-15T05:30:25.809Z,69.50
2022-11-15T05:31:25.803Z,65.40
2022-11-15T05:32:25.869Z,66.80
2022-11-15T05:33:25.868Z,72.30
2022-11-15T05:34:25.745Z,74.60
2022-11-15T05:35:25.740Z,71.80
2022-11-15T05:36:25.760Z,76.10
2022-11-15T05:37:25.786Z,74.20
2022-11-15T05:38:25.759Z,80.00
2022-11-15T05:39:25.709Z,79.20
2022-11-15T05:40:25.684Z,80.00
2022-11-15T05:41:25.674Z,79.20
2022-11-15T05:42:26.676Z,78.70
2022-11-15T05:43:26.726Z,80.30
2022-11-15T05:44:25.768Z,82.20
2022-11-15T05:45:27.167Z,76.90
2022-11-15T05:46:26.533Z,81.20
2022-11-15T05:47:25.646Z,82.10
2022-11-15T05:48:25.593Z,82.30
2022-11-15T05:49:25.620Z,81.20
2022-11-15T05:50:25.661Z,82.80
2022-11-15T05:51:25.651Z,82.70
2022-11-15T05:52:25.547Z,78.30
2022-11-15T05:53:25.550Z,80.50
2022-11-15T05:54:27.482Z,79.90
2022-11-15T05:55:25.612Z,80.20
2022-11-15T05:56:25.558Z,83.70
2022-11-15T05:57:25.488Z,78.20
2022-11-15T05:58:25.480Z,75.90
2022-11-15T05:59:25.501Z,84.70
2022-11-15T06:00:25.478Z,80.40
2022-11-15T06:01:25.539Z,79.90
2022-11-15T06:02:25.840Z,79.90
2022-11-15T06:03:25.463Z,79.80
2022-11-15T06:04:25.455Z,72.30
2022-11-15T06:05:25.405Z,75.80
2022-11-15T06:06:26.365Z,74.10
2022-11-15T06:07:25.494Z,73.10
2022-11-15T06:08:25.659Z,74.40
2022-11-15T06:09:25.390Z,71.00
2022-11-15T06:10:25.352Z,75.30
2022-11-15T06:11:25.330Z,71.10
2022-11-15T06:12:25.346Z,72.80
2022-11-15T06:13:25.460Z,71.40
2022-11-15T06:14:25.444Z,72.40
2022-11-15T06:15:25.674Z,71.30
2022-11-15T06:16:25.284Z,67.50
2022-11-15T06:17:25.273Z,70.20
2022-11-15T06:18:25.318Z,75.50
2022-11-15T06:19:25.320Z,76.60
2022-11-15T06:20:25.271Z,72.30
2022-11-15T06:21:25.261Z,70.30
2022-11-15T06:22:25.236Z,70.00
2022-11-15T06:23:26.316Z,67.90
2022-11-15T06:24:25.238Z,68.00
2022-11-15T06:25:25.258Z,69.80
2022-11-15T06:26:25.207Z,67.90
2022-11-15T06:27:25.181Z,63.30
2022-11-15T06:28:25.143Z,68.10
2022-11-15T06:29:31.434Z,67.50
2022-11-15T06:30:31.142Z,67.30
2022-11-15T06:31:31.384Z,67.20
2022-11-15T06:32:25.182Z,68.10
2022-11-15T06:33:25.096Z,66.70
2022-11-15T06:34:25.072Z,63.00
2022-11-15T06:35:25.199Z,63.00
2022-11-15T06:36:25.149Z,63.80
2022-11-15T06:37:25.045Z,63.30
2022-11-15T06:38:25.040Z,66.90
2022-11-15T06:39:25.070Z,62.60
2022-11-15T06:40:25.014Z,66.10
2022-11-15T06:41:25.015Z,64.40
2022-11-15T06:42:25.092Z,66.90
2022-11-15T06:43:25.001Z,59.80
2022-11-15T06:44:25.167Z,60.40
2022-11-15T06:45:24.975Z,58.30
2022-11-15T06:46:24.963Z,59.70
2022-11-15T06:47:25.043Z,63.70
2022-11-15T06:48:25.011Z,57.60
2022-11-15T06:49:24.950Z,57.60
2022-11-15T06:50:24.901Z,59.10
2022-11-15T06:51:24.898Z,59.20
2022-11-15T06:52:25.609Z,59.70
2022-11-15T06:53:24.960Z,65.70
2022-11-15T06:54:24.937Z,56.30
2022-11-15T06:55:25.526Z,61.20
2022-11-15T06:56:24.835Z,56.00
2022-11-15T06:57:24.877Z,61.00
2022-11-15T06:58:24.911Z,58.20
2022-11-15T06:59:24.903Z,62.10
2022-11-15T07:00:24.860Z,61.20
2022-11-15T07:01:24.797Z,59.00
2022-11-15T07:02:24.772Z,59.60
2022-11-15T07:03:24.819Z,61.70
2022-11-15T07:04:24.783Z,64.30
2022-11-15T07:05:25.630Z,61.00
2022-11-15T07:06:24.828Z,58.10
2022-11-15T07:07:24.842Z,58.60
2022-11-15T07:08:24.813Z,58.10
2022-11-15T07:09:24.692Z,61.90
2022-11-15T07:10:24.689Z,58.20
2022-11-15T07:11:24.812Z,61.00
2022-11-15T07:12:24.743Z,59.30
2022-11-15T07:13:24.739Z,59.80
2022-11-15T07:14:24.672Z,59.90
2022-11-15T07:15:24.635Z,61.10
2022-11-15T07:16:31.726Z,64.10
2022-11-15T07:17:24.659Z,56.70
2022-11-15T07:18:30.870Z,57.70
2022-11-15T07:19:24.621Z,61.10
2022-11-15T07:21:52.653Z,62.10
2022-11-15T07:22:52.938Z,64.00
2022-11-15T07:23:53.603Z,62.10
2022-11-15T07:24:52.844Z,60.80
2022-11-15T07:25:52.820Z,60.60
2022-11-15T07:26:52.861Z,59.50
2022-11-15T07:27:52.896Z,61.60
2022-11-15T07:28:52.869Z,58.50
2022-11-15T07:29:52.796Z,63.50
2022-11-15T07:30:52.856Z,66.90
2022-11-15T07:31:52.915Z,63.90
2022-11-15T07:32:52.762Z,64.30
2022-11-15T07:35:41.935Z,59.20
2022-11-15T07:36:42.895Z,58.90
2022-11-15T07:37:43.687Z,59.20
2022-11-15T07:38:43.282Z,57.10
2022-11-15T07:39:42.878Z,64.90
2022-11-15T07:40:42.947Z,59.40
2022-11-15T07:41:43.072Z,58.60
2022-11-15T07:42:42.948Z,60.50
2022-11-15T07:43:42.847Z,61.00
2022-11-15T07:44:43.146Z,61.00
2022-11-15T07:45:42.819Z,64.80
2022-11-15T07:46:42.782Z,63.00
2022-11-15T07:47:42.819Z,59.70
2022-11-15T07:48:44.860Z,56.40
2022-11-15T07:49:42.868Z,58.20
2022-11-15T07:50:42.743Z,57.60
2022-11-15T07:51:43.333Z,62.40
2022-11-15T07:52:42.806Z,56.80
2022-11-15T07:53:42.773Z,54.80
2022-11-15T07:54:42.840Z,58.90
2022-11-15T07:55:42.677Z,58.30
2022-11-15T07:56:43.719Z,55.70
2022-11-15T07:57:42.661Z,55.90
2022-11-15T07:58:42.700Z,55.70
2022-11-15T07:59:44.310Z,57.10
2022-11-15T08:00:42.623Z,58.30
2022-11-15T08:01:42.870Z,55.10
2022-11-15T08:02:42.848Z,59.90
2022-11-15T08:03:42.628Z,58.00
2022-11-15T08:04:42.623Z,55.10
2022-11-15T08:05:42.710Z,51.80
2022-11-15T08:06:42.684Z,56.20
2022-11-15T08:07:42.585Z,54.70
2022-11-15T08:08:42.517Z,55.50
2022-11-15T08:09:42.517Z,60.20
2022-11-15T08:10:42.500Z,54.00
2022-11-15T08:11:42.511Z,56.10
2022-11-15T08:12:42.567Z,53.30
2022-11-15T08:13:42.484Z,54.50
2022-11-15T08:14:42.482Z,60.00
2022-11-15T08:15:43.410Z,52.70
2022-11-15T08:16:42.481Z,56.00
2022-11-15T08:17:42.499Z,54.20
2022-11-15T08:18:42.454Z,50.00
2022-11-15T08:19:42.502Z,51.80
2022-11-15T08:56:53.496Z,40.60
2022-11-15T08:57:54.415Z,43.30
2022-11-15T08:58:54.384Z,40.30
2022-11-15T08:59:54.367Z,40.00
2022-11-15T09:00:54.346Z,41.60
2022-11-15T09:01:54.493Z,40.80
2022-11-15T09:02:54.438Z,42.70
2022-11-15T09:03:55.186Z,42.80
2022-11-15T09:04:54.307Z,42.80
2022-11-15T09:05:54.392Z,43.80
2022-11-15T09:06:54.408Z,42.50
2022-11-15T09:07:54.439Z,38.90
2022-11-15T09:08:56.167Z,42.20
2022-11-15T09:09:54.258Z,41.50
2022-11-15T09:10:54.247Z,37.80
2022-11-15T09:11:59.498Z,35.40
2022-11-15T09:12:54.268Z,34.90
2022-11-15T09:13:54.272Z,33.00
2022-11-15T09:14:54.212Z,35.50
2022-11-15T09:15:54.289Z,36.00
2022-11-15T09:16:54.153Z,32.10
2022-11-15T09:17:54.203Z,31.60
2022-11-15T09:18:54.223Z,30.00
2022-11-15T09:19:54.249Z,29.30
2022-11-15T09:20:54.237Z,30.60
2022-11-15T09:21:54.096Z,29.70
2022-11-15T09:22:54.080Z,28.50
2022-11-15T09:23:54.115Z,29.20
2022-11-15T09:24:54.076Z,28.00
2022-11-15T09:25:54.091Z,30.20
2022-11-15T09:26:54.064Z,30.40
2022-11-15T09:27:55.137Z,30.20
2022-11-15T09:28:54.116Z,28.10
2022-11-15T09:29:54.073Z,28.10
2022-11-15T09:30:54.096Z,27.50
2022-11-15T09:31:54.858Z,29.80
2022-11-15T09:32:54.021Z,29.40
2022-11-15T09:33:54.000Z,28.20
2022-11-15T09:34:54.041Z,27.50
2022-11-15T09:35:54.857Z,28.10
2022-11-15T09:36:54.722Z,31.40
2022-11-15T09:37:56.446Z,28.20
2022-11-15T09:38:53.935Z,26.70
2022-11-15T09:39:53.945Z,29.60
2022-11-15T09:40:54.008Z,28.10
2022-11-15T09:41:53.870Z,25.40
2022-11-15T09:42:53.883Z,28.60
2022-11-15T09:43:53.891Z,28.10
2022-11-15T09:44:54.858Z,24.70
2022-11-15T09:45:53.849Z,26.70
2022-11-15T09:46:53.882Z,25.40
2022-11-15T09:47:53.903Z,25.90
2022-11-15T09:48:53.868Z,26.20
2022-11-15T09:49:56.736Z,25.90
2022-11-15T09:50:53.818Z,23.50
2022-11-15T09:51:53.793Z,27.10
2022-11-15T09:52:53.775Z,24.50
2022-11-15T09:54:55.139Z,24.80
2022-11-15T09:55:54.031Z,24.90
2022-11-15T09:56:53.704Z,25.30
2022-11-15T09:57:53.978Z,25.10
2022-11-15T09:58:53.772Z,26.50
2022-11-15T09:59:53.750Z,24.60
2022-11-15T10:00:53.911Z,27.70
2022-11-15T10:01:53.682Z,24.60
2022-11-15T10:02:53.640Z,27.60
2022-11-15T10:03:53.694Z,25.90
2022-11-15T10:04:53.708Z,22.20
2022-11-15T10:05:53.601Z,25.30
2022-11-15T10:06:53.701Z,22.20
2022-11-15T10:07:53.571Z,21.80
2022-11-15T10:08:54.510Z,24.40
2022-11-15T10:09:53.580Z,20.90
2022-11-15T10:11:09.702Z,24.50
2022-11-15T10:11:54.345Z,22.00
2022-11-15T10:12:53.969Z,22.80
2022-11-15T10:13:54.896Z,23.10
2022-11-15T10:14:54.771Z,20.90
2022-11-15T10:19:06.968Z,21.60
2022-11-15T10:20:07.540Z,21.10
2022-11-15T10:21:16.406Z,23.80
2022-11-15T10:22:07.494Z,22.20
2022-11-15T10:23:07.566Z,21.10
2022-11-15T10:24:07.525Z,20.20
2022-11-15T10:25:07.737Z,22.60
2022-11-15T10:26:07.486Z,19.60
2022-11-15T10:27:09.258Z,20.30
2022-11-15T10:28:07.947Z,21.90
2022-11-15T10:29:07.532Z,22.00
2022-11-15T10:30:07.505Z,19.30
2022-11-15T10:31:07.403Z,21.00
2022-11-15T10:32:08.353Z,23.10
2022-11-15T10:33:09.103Z,19.90
2022-11-15T10:34:09.200Z,19.50
2022-11-15T10:35:09.439Z,19.80
2022-11-15T10:36:09.378Z,21.70
2022-11-15T10:37:13.224Z,20.80
2022-11-15T10:38:10.541Z,20.10
2022-11-15T10:39:07.465Z,20.00
2022-11-15T10:41:24.140Z,18.00
2022-11-15T10:42:25.200Z,18.20
2022-11-15T10:43:25.213Z,20.20
2022-11-15T10:44:25.176Z,17.70
2022-11-15T10:45:25.426Z,17.60
2022-11-15T10:46:45.632Z,18.80
2022-11-15T10:47:26.051Z,18.60
2022-11-15T10:48:25.905Z,18.50
2022-11-15T10:49:25.096Z,17.70
2022-11-15T10:50:25.553Z,18.80
2022-11-15T10:51:25.094Z,19.20
2022-11-15T10:52:25.937Z,18.00
2022-11-15T10:53:25.052Z,19.30
2022-11-15T10:54:25.105Z,17.00
2022-11-15T10:55:25.084Z,17.00
2022-11-15T10:56:25.051Z,18.30
2022-11-15T10:57:24.979Z,17.90
2022-11-15T10:58:24.985Z,18.50
2022-11-15T10:59:24.979Z,17.40
2022-11-15T11:00:25.813Z,17.50
2022-11-15T11:01:25.059Z,16.10
2022-11-15T11:02:24.995Z,17.70
2022-11-15T11:03:25.206Z,16.40
2022-11-15T11:04:24.921Z,18.40
2022-11-15T11:05:25.114Z,18.50
2022-11-15T11:06:24.938Z,17.60
2022-11-15T11:07:25.116Z,17.40
2022-11-15T11:08:26.368Z,16.00
2022-11-15T11:09:25.021Z,16.70
2022-11-15T11:11:24.830Z,16.40
2022-11-15T11:12:24.881Z,17.60
2022-11-15T11:13:25.315Z,17.30
2022-11-15T11:14:24.804Z,16.30
2022-11-15T11:15:24.803Z,16.10
2022-11-15T11:16:25.100Z,15.30
2022-11-15T11:17:24.775Z,15.50
2022-11-15T11:18:24.801Z,14.80
2022-11-15T11:19:24.866Z,17.80
2022-11-15T11:20:24.774Z,15.80
2022-11-15T11:21:31.095Z,16.70
2022-11-15T11:22:24.767Z,14.70
2022-11-15T11:23:24.721Z,15.10
2022-11-15T11:24:25.371Z,14.10
2022-11-15T11:25:25.377Z,13.50
2022-11-15T11:26:24.901Z,13.60
2022-11-15T11:27:24.663Z,13.10
2022-11-15T11:28:24.659Z,13.50
2022-11-15T11:29:24.630Z,13.60
2022-11-15T11:30:24.746Z,13.90
2022-11-15T11:31:24.641Z,14.10
2022-11-15T11:32:24.715Z,14.80
2022-11-15T11:33:24.640Z,14.10
2022-11-15T11:34:24.557Z,15.50
2022-11-15T11:35:24.677Z,12.50
2022-11-15T11:36:24.535Z,12.70
2022-11-15T11:37:24.526Z,13.00
2022-11-15T11:38:24.650Z,13.10
2022-11-15T11:39:24.516Z,13.50
2022-11-15T11:40:25.413Z,13.50
2022-11-15T11:41:24.674Z,13.20
2022-11-15T11:42:24.600Z,13.70
2022-11-15T11:43:24.472Z,13.30
2022-11-15T11:44:24.443Z,14.80
2022-11-15T11:45:24.712Z,12.30
2022-11-15T11:46:24.546Z,14.30
2022-11-15T11:47:24.481Z,15.20
2022-11-15T11:48:25.410Z,13.20
2022-11-15T11:49:24.376Z,12.80
2022-11-15T11:50:24.467Z,11.90
2022-11-15T11:51:24.573Z,13.80
2022-11-15T11:52:24.443Z,13.00
2022-11-15T11:53:24.532Z,12.90
2022-11-15T11:54:24.467Z,12.90
2022-11-15T11:55:24.314Z,12.40
2022-11-15T11:56:24.434Z,13.00
2022-11-15T11:57:25.016Z,13.40
2022-11-15T11:58:24.461Z,12.70
2022-11-15T11:59:24.465Z,12.70
2022-11-15T12:00:24.332Z,13.00
2022-11-15T12:01:24.269Z,15.90
2022-11-15T12:02:24.446Z,14.90
2022-11-15T12:03:24.406Z,13.40
2022-11-15T12:06:02.745Z,15.90
2022-11-15T12:07:03.801Z,17.80
2022-11-15T12:08:04.441Z,17.40
2022-11-15T12:09:03.575Z,20.30
2022-11-15T12:10:03.592Z,19.20
2022-11-15T12:11:03.879Z,21.30
2022-11-15T12:12:03.576Z,21.60
2022-11-15T12:13:03.529Z,22.60
2022-11-15T12:14:03.445Z,20.40
2022-11-15T12:15:03.360Z,22.70
2022-11-15T12:16:06.155Z,22.20
2022-11-15T12:17:03.378Z,24.40
2022-11-15T12:18:03.307Z,23.50
2022-11-15T12:19:03.574Z,25.90
2022-11-15T12:20:03.331Z,24.90
2022-11-15T12:21:03.344Z,27.10
2022-11-15T12:22:03.282Z,25.40
2022-11-15T12:23:03.281Z,26.00
2022-11-15T12:24:03.830Z,28.80
2022-11-15T12:25:03.350Z,30.30
2022-11-15T12:26:03.411Z,28.80
2022-11-15T12:27:03.214Z,26.80
2022-11-15T12:28:03.244Z,27.50
2022-11-15T12:29:10.281Z,27.40
2022-11-15T12:30:03.172Z,27.20
2022-11-15T12:31:03.211Z,30.70
2022-11-15T12:32:03.232Z,26.40
2022-11-15T12:33:03.223Z,25.80
2022-11-15T12:34:07.331Z,29.20
2022-11-15T12:35:03.128Z,29.00
2022-11-15T12:36:03.130Z,29.50
2022-11-15T12:37:03.684Z,27.60
2022-11-15T12:38:03.108Z,29.40
2022-11-15T12:39:03.787Z,30.20
2022-11-15T12:40:04.249Z,27.70
2022-11-15T12:41:03.147Z,32.90
2022-11-15T12:42:03.152Z,28.00
2022-11-15T12:43:03.028Z,29.80
2022-11-15T12:44:03.800Z,31.50
2022-11-15T12:45:03.224Z,29.30
2022-11-15T12:46:03.065Z,29.60
2022-11-15T12:47:03.068Z,27.40
2022-11-15T12:48:03.794Z,29.30
2022-11-15T12:49:03.855Z,28.80
2022-11-15T12:50:02.956Z,25.80
2022-11-15T12:51:04.896Z,26.20
2022-11-15T12:52:03.018Z,25.30
2022-11-15T12:53:03.002Z,26.20
2022-11-15T12:54:03.070Z,27.10
2022-11-15T12:55:02.969Z,24.20
2022-11-15T12:56:03.185Z,24.40
2022-11-15T12:57:02.971Z,22.60
2022-11-15T12:58:02.911Z,22.30
2022-11-15T12:59:03.012Z,21.80
2022-11-15T13:00:02.908Z,21.40
2022-11-15T13:01:02.948Z,19.10
2022-11-15T13:02:02.828Z,19.10
2022-11-15T13:03:03.125Z,18.60
2022-11-15T13:04:02.884Z,17.70
2022-11-15T13:05:02.821Z,16.70
2022-11-15T13:06:02.797Z,17.80
2022-11-15T13:07:02.810Z,17.50
2022-11-15T13:08:02.791Z,17.60
2022-11-15T13:09:02.860Z,17.20
2022-11-15T13:10:02.846Z,18.30
2022-11-15T13:11:02.726Z,17.80
2022-11-15T13:12:02.743Z,17.90
2022-11-15T13:13:02.713Z,17.40
2022-11-15T13:14:02.731Z,19.30
2022-11-15T13:15:02.764Z,18.60
2022-11-15T13:17:18.874Z,19.90
2022-11-15T13:18:19.792Z,16.50
2022-11-15T13:19:20.220Z,17.70
2022-11-15T13:20:20.129Z,17.30
2022-11-15T13:21:19.714Z,18.60
2022-11-15T13:22:21.235Z,17.20
2022-11-15T13:23:19.743Z,17.60
2022-11-15T13:24:19.848Z,16.80
2022-11-15T13:25:21.397Z,16.50
2022-11-15T13:26:19.623Z,16.60
2022-11-15T13:27:19.587Z,16.60
2022-11-15T13:28:19.658Z,16.20
2022-11-15T13:30:49.328Z,16.80
2022-11-15T13:31:50.334Z,16.50
2022-11-15T13:32:50.371Z,16.90
2022-11-15T13:33:50.328Z,16.80
2022-11-15T13:34:52.065Z,16.50
2022-11-15T13:35:50.267Z,16.00
2022-11-15T13:36:50.244Z,15.80
2022-11-15T13:37:50.302Z,16.80
2022-11-15T13:38:50.337Z,16.70
2022-11-15T13:39:50.400Z,16.70
2022-11-15T13:40:51.150Z,16.20
2022-11-15T13:41:50.173Z,15.40
2022-11-15T13:42:50.159Z,15.60
2022-11-15T13:43:50.149Z,14.80
2022-11-15T13:44:50.235Z,15.20
2022-11-15T13:45:50.229Z,15.00
2022-11-15T13:46:51.025Z,14.20
2022-11-15T13:47:50.099Z,14.00
2022-11-15T13:48:50.121Z,13.20
2022-11-15T13:49:50.151Z,13.80
2022-11-15T13:50:50.115Z,13.90
2022-11-15T13:51:50.229Z,12.40
2022-11-15T13:52:50.064Z,12.80
2022-11-15T13:53:50.058Z,14.00
2022-11-15T13:54:50.133Z,13.00
2022-11-15T13:55:50.075Z,12.60
2022-11-15T13:56:50.204Z,13.00
2022-11-15T13:57:50.110Z,12.40
2022-11-15T13:58:50.021Z,12.60
2022-11-15T13:59:50.089Z,12.20
2022-11-15T14:00:50.009Z,12.70
2022-11-15T14:01:50.110Z,12.00
2022-11-15T14:02:50.112Z,12.20
2022-11-15T14:03:49.924Z,11.90
2022-11-15T14:04:49.914Z,12.10
2022-11-15T14:05:49.895Z,11.80